Thunder radar more information blitzortung!


Radar de pluja more information rain snow radar


Visita la nostra xarxa de llocs de meteo:

Template documentation
and downloads

And another site



No particular awareness of the weather is required.    There are no Weather-warnings

Pagina Historial Weather Underground text

Diari Resum May 13, 2017 Unitats:  Mètric    Imperial   Tant
« Previous Dia
SegĂźent Dia »
Diari Setmana Mensual Anual Personalitzada
  Maxima: Minima: Media:
Temperatura: 26.7 °C 13.3 °C 21.7 °C
Punt de rosada: 11.9 °C 5.8 °C 8.2 °C
Humitat: 72 % 28 % 44 %
Wind Speed: 24.1 km/h 0.0 km/h 9.6 km/h
RĂ fegues de vent: 24.1 km/h - -
Vent:- - WSW
Pression baro: 1018.8 hPa 1010.7 hPa -
Precipitacions: 0.0 mm    
Historical Graphs
 
 
Dades de taula per May 13, 2017
Temps Temperatura Punt de rosada Pression baro Vent Wind Speed RĂ fegues de vent Humitat Rainfall Rate (Hourly)
00:04 16.0 °C 9.9 °C 1010.7 hPa WSW 11.1 km/h 11.1 km/h 67 % 0.0 mm
00:05 14.6 °C 9.0 °C 1010.7 hPa Calm   1.6 km/h 69 % 0.0 mm
00:09 16.0 °C 10.1 °C 1010.7 hPa SW 5.6 km/h 5.6 km/h 68 % 0.0 mm
00:14 15.8 °C 9.9 °C 1010.7 hPa SSW 9.3 km/h 9.3 km/h 68 % 0.0 mm
00:15 14.6 °C 8.8 °C 1010.7 hPa West 1.6 km/h 3.2 km/h 68 % 0.0 mm
00:25 14.6 °C 8.8 °C 1011.7 hPa West 1.6 km/h 3.2 km/h 68 % 0.0 mm
00:35 14.6 °C 8.8 °C 1011.7 hPa WNW 1.6 km/h 1.6 km/h 68 % 0.0 mm
00:45 14.7 °C 8.8 °C 1011.7 hPa Calm   3.2 km/h 68 % 0.0 mm
00:55 14.5 °C 8.7 °C 1011.7 hPa SW 1.6 km/h 3.2 km/h 68 % 0.0 mm
01:05 14.2 °C 8.6 °C 1011.7 hPa Calm   3.2 km/h 69 % 0.0 mm
01:15 13.6 °C 8.0 °C 1011.7 hPa SW 1.6 km/h 4.8 km/h 69 % 0.0 mm
01:25 13.6 °C 8.2 °C 1011.7 hPa Calm     70 % 0.0 mm
01:35 13.5 °C 7.9 °C 1011.7 hPa SW 4.8 km/h 4.8 km/h 69 % 0.0 mm
01:45 13.3 °C 8.2 °C 1011.7 hPa SW 3.2 km/h 4.8 km/h 71 % 0.0 mm
01:55 13.5 °C 8.3 °C 1011.7 hPa SW 3.2 km/h 4.8 km/h 71 % 0.0 mm
02:05 14.3 °C 9.3 °C 1011.7 hPa WSW 3.2 km/h 4.8 km/h 72 % 0.0 mm
02:15 14.4 °C 9.4 °C 1011.7 hPa WSW 3.2 km/h 3.2 km/h 72 % 0.0 mm
02:25 14.7 °C 9.5 °C 1011.7 hPa SW 1.6 km/h 4.8 km/h 71 % 0.0 mm
02:35 15.1 °C 9.9 °C 1012.8 hPa Calm   1.6 km/h 71 % 0.0 mm
02:45 15.6 °C 10.3 °C 1012.8 hPa SW 1.6 km/h 4.8 km/h 71 % 0.0 mm
02:55 16.1 °C 10.6 °C 1012.8 hPa South 1.6 km/h 3.2 km/h 70 % 0.0 mm
03:05 16.0 °C 10.3 °C 1012.8 hPa ESE 4.8 km/h 6.4 km/h 69 % 0.0 mm
03:25 17.4 °C 11.2 °C 1012.8 hPa SE 1.6 km/h 4.8 km/h 67 % 0.0 mm
03:35 17.9 °C 11.4 °C 1012.8 hPa SSE 1.6 km/h 3.2 km/h 66 % 0.0 mm
03:45 18.2 °C 11.5 °C 1012.8 hPa SW 1.6 km/h 3.2 km/h 65 % 0.0 mm
03:55 18.4 °C 11.4 °C 1013.8 hPa WSW 3.2 km/h 4.8 km/h 64 % 0.0 mm
04:05 18.3 °C 11.1 °C 1013.8 hPa WSW 3.2 km/h 8.0 km/h 63 % 0.0 mm
04:15 18.3 °C 10.9 °C 1013.8 hPa WSW 4.8 km/h 6.4 km/h 62 % 0.0 mm
04:25 18.8 °C 11.4 °C 1013.8 hPa WSW 3.2 km/h 4.8 km/h 62 % 0.0 mm
04:35 19.0 °C 11.1 °C 1013.8 hPa WSW 4.8 km/h 9.7 km/h 60 % 0.0 mm
04:45 19.2 °C 11.0 °C 1013.8 hPa WSW 8.0 km/h 9.7 km/h 59 % 0.0 mm
04:55 19.8 °C 11.3 °C 1013.8 hPa West 4.8 km/h 4.8 km/h 58 % 0.0 mm
05:05 19.8 °C 11.3 °C 1013.8 hPa West 8.0 km/h 9.7 km/h 58 % 0.0 mm
05:15 20.1 °C 11.1 °C 1013.8 hPa West 3.2 km/h 6.4 km/h 56 % 0.0 mm
10:21 20.4 °C 11.1 °C 1014.8 hPa West 8.7 km/h 8.7 km/h 55 % 0.0 mm
10:26 20.6 °C 11.2 °C 1013.8 hPa WSW 7.4 km/h 7.4 km/h 55 % 0.0 mm
10:31 20.8 °C 11.2 °C 1013.8 hPa SW 5.6 km/h 5.6 km/h 54 % 0.0 mm
10:36 21.3 °C 11.3 °C 1013.8 hPa WSW 9.3 km/h 9.3 km/h 53 % 0.0 mm
10:41 21.4 °C 11.4 °C 1014.8 hPa WSW 9.3 km/h 9.3 km/h 53 % 0.0 mm
10:46 21.6 °C 11.6 °C 1014.8 hPa WSW 14.8 km/h 14.8 km/h 53 % 0.0 mm
10:51 21.8 °C 11.5 °C 1014.8 hPa North 14.8 km/h 14.8 km/h 52 % 0.0 mm
10:56 22.3 °C 11.9 °C 1014.8 hPa WSW 7.4 km/h 7.4 km/h 52 % 0.0 mm
11:01 22.0 °C 11.4 °C 1014.8 hPa WSW 9.3 km/h 9.3 km/h 51 % 0.0 mm
11:02 22.1 °C 11.5 °C 1014.8 hPa WSW 7.4 km/h 7.4 km/h 51 % 0.0 mm
11:07 22.2 °C 11.6 °C 1014.8 hPa SW 7.4 km/h 7.4 km/h 51 % 0.0 mm
11:12 22.5 °C 11.6 °C 1014.8 hPa WSW 13.7 km/h 13.7 km/h 50 % 0.0 mm
11:17 22.3 °C 11.1 °C 1014.8 hPa SW 6.4 km/h 6.4 km/h 49 % 0.0 mm
11:22 22.4 °C 11.2 °C 1014.8 hPa West 9.3 km/h 9.3 km/h 49 % 0.0 mm
11:27 22.5 °C 11.2 °C 1014.8 hPa West 9.3 km/h 9.3 km/h 49 % 0.0 mm
11:32 22.9 °C 11.6 °C 1014.8 hPa West 9.3 km/h 9.3 km/h 49 % 0.0 mm
11:37 22.8 °C 11.2 °C 1014.8 hPa WNW 14.8 km/h 14.8 km/h 48 % 0.0 mm
11:42 22.9 °C 11.3 °C 1014.8 hPa WSW 13.0 km/h 13.0 km/h 48 % 0.0 mm
11:47 23.2 °C 11.3 °C 1014.8 hPa West 9.3 km/h 9.3 km/h 47 % 0.0 mm
11:52 23.5 °C 11.6 °C 1014.8 hPa SSW 13.0 km/h 13.0 km/h 47 % 0.0 mm
11:57 23.5 °C 11.2 °C 1014.8 hPa WSW 11.1 km/h 11.1 km/h 46 % 0.0 mm
12:02 23.8 °C 11.5 °C 1014.8 hPa WSW 5.6 km/h 5.6 km/h 46 % 0.0 mm
12:07 24.0 °C 11.3 °C 1014.8 hPa SW 14.8 km/h 14.8 km/h 45 % 0.0 mm
12:12 23.7 °C 11.1 °C 1014.8 hPa SW 11.1 km/h 11.1 km/h 45 % 0.0 mm
12:17 23.4 °C 10.1 °C 1014.8 hPa North 9.3 km/h 9.3 km/h 43 % 0.0 mm
12:22 23.5 °C 10.2 °C 1014.8 hPa West 9.3 km/h 9.3 km/h 43 % 0.0 mm
12:27 24.2 °C 10.8 °C 1014.8 hPa West 5.6 km/h 5.6 km/h 43 % 0.0 mm
12:32 24.2 °C 10.8 °C 1014.8 hPa SW 9.3 km/h 9.3 km/h 43 % 0.0 mm
12:37 24.7 °C 10.9 °C 1014.8 hPa North 18.5 km/h 18.5 km/h 42 % 0.0 mm
12:42 24.5 °C 10.7 °C 1014.8 hPa West 13.0 km/h 13.0 km/h 42 % 0.0 mm
12:47 24.6 °C 10.4 °C 1014.8 hPa SW 11.1 km/h 11.1 km/h 41 % 0.0 mm
12:52 25.0 °C 10.1 °C 1014.8 hPa SW 7.4 km/h 7.4 km/h 39 % 0.0 mm
12:57 24.9 °C 10.0 °C 1014.8 hPa SW 7.4 km/h 7.4 km/h 39 % 0.0 mm
13:02 25.2 °C 9.9 °C 1014.8 hPa WNW 9.7 km/h 9.7 km/h 38 % 0.0 mm
13:07 24.9 °C 9.6 °C 1014.8 hPa SW 9.3 km/h 9.3 km/h 38 % 0.0 mm
13:12 25.2 °C 9.4 °C 1014.8 hPa WSW 15.6 km/h 15.6 km/h 37 % 0.0 mm
13:17 25.0 °C 8.4 °C 1014.8 hPa West 13.0 km/h 13.0 km/h 35 % 0.0 mm
13:22 24.6 °C 8.1 °C 1014.8 hPa SSW 9.3 km/h 9.3 km/h 35 % 0.0 mm
13:27 24.9 °C 7.9 °C 1015.8 hPa WNW 11.1 km/h 12.6 km/h 34 % 0.0 mm
13:32 25.1 °C 7.7 °C 1015.8 hPa WSW 17.5 km/h 17.5 km/h 33 % 0.0 mm
13:37 25.1 °C 6.8 °C 1015.8 hPa NNW 16.7 km/h 16.7 km/h 31 % 0.0 mm
13:42 25.0 °C 6.7 °C 1014.8 hPa WNW 9.3 km/h 9.3 km/h 31 % 0.0 mm
13:47 25.1 °C 6.8 °C 1014.8 hPa WNW 7.4 km/h 7.4 km/h 31 % 0.0 mm
13:52 25.5 °C 7.1 °C 1014.8 hPa WSW 11.1 km/h 11.1 km/h 31 % 0.0 mm
13:57 25.2 °C 6.4 °C 1014.8 hPa West 16.7 km/h 16.7 km/h 30 % 0.0 mm
14:02 25.2 °C 6.4 °C 1014.8 hPa NNW 11.1 km/h 11.1 km/h 30 % 0.0 mm
14:07 25.4 °C 6.6 °C 1014.8 hPa NW 10.8 km/h 10.8 km/h 30 % 0.0 mm
14:12 25.8 °C 7.4 °C 1015.8 hPa WNW 11.1 km/h 11.1 km/h 31 % 0.0 mm
14:17 25.5 °C 6.7 °C 1015.8 hPa West 14.8 km/h 14.8 km/h 30 % 0.0 mm
14:22 25.5 °C 6.7 °C 1015.8 hPa SW 13.0 km/h 13.0 km/h 30 % 0.0 mm
14:27 25.7 °C 6.8 °C 1014.8 hPa NW 13.0 km/h 13.0 km/h 30 % 0.0 mm
14:32 25.7 °C 6.8 °C 1014.8 hPa WSW 13.0 km/h 13.0 km/h 30 % 0.0 mm
14:37 25.4 °C 6.6 °C 1014.8 hPa WSW 13.0 km/h 13.0 km/h 30 % 0.0 mm
14:42 25.2 °C 6.4 °C 1015.8 hPa SW 11.1 km/h 11.1 km/h 30 % 0.0 mm
14:47 25.0 °C 6.2 °C 1015.8 hPa West 7.9 km/h 7.9 km/h 30 % 0.0 mm
14:52 24.7 °C 5.9 °C 1015.8 hPa WSW 9.3 km/h 9.3 km/h 30 % 0.0 mm
14:57 25.1 °C 5.8 °C 1015.8 hPa NW 16.7 km/h 16.7 km/h 29 % 0.0 mm
14:58 25.1 °C 5.8 °C 1015.8 hPa WSW 16.7 km/h 16.7 km/h 29 % 0.0 mm
15:03 25.3 °C 6.0 °C 1015.8 hPa WSW 5.8 km/h 7.2 km/h 29 % 0.0 mm
15:08 25.8 °C 6.9 °C 1015.8 hPa SSE 5.8 km/h 5.8 km/h 30 % 0.0 mm
15:09 26.0 °C 7.1 °C 1015.8 hPa West 11.9 km/h 11.9 km/h 30 % 0.0 mm
15:14 26.1 °C 7.2 °C 1014.8 hPa WNW 13.0 km/h 13.0 km/h 30 % 0.0 mm
15:19 26.0 °C 7.1 °C 1014.8 hPa West 9.3 km/h 9.3 km/h 30 % 0.0 mm
15:24 26.1 °C 7.2 °C 1014.8 hPa SW 9.3 km/h 9.3 km/h 30 % 0.0 mm
15:29 25.9 °C 7.0 °C 1015.8 hPa WNW 11.1 km/h 11.1 km/h 30 % 0.0 mm
15:34 26.4 °C 6.9 °C 1015.8 hPa WNW 7.4 km/h 7.4 km/h 29 % 0.0 mm
15:39 26.4 °C 6.9 °C 1015.8 hPa West 13.0 km/h 13.0 km/h 29 % 0.0 mm
15:44 26.0 °C 6.1 °C 1015.8 hPa West 15.6 km/h 15.6 km/h 28 % 0.0 mm
15:49 26.2 °C 6.8 °C 1015.8 hPa SW 9.7 km/h 9.7 km/h 29 % 0.0 mm
15:54 26.5 °C 7.0 °C 1015.8 hPa WSW 10.3 km/h 10.3 km/h 29 % 0.0 mm
15:59 26.3 °C 6.8 °C 1015.8 hPa WSW 14.8 km/h 14.8 km/h 29 % 0.0 mm
16:04 26.4 °C 6.9 °C 1015.8 hPa WSW 7.4 km/h 7.4 km/h 29 % 0.0 mm
16:09 26.5 °C 7.0 °C 1015.8 hPa WSW 13.0 km/h 13.0 km/h 29 % 0.0 mm
16:14 26.2 °C 6.2 °C 1014.8 hPa WNW 12.6 km/h 12.6 km/h 28 % 0.0 mm
16:19 26.0 °C 6.1 °C 1014.8 hPa West 7.4 km/h 7.4 km/h 28 % 0.0 mm
16:24 26.2 °C 6.2 °C 1014.8 hPa WNW 15.1 km/h 15.1 km/h 28 % 0.0 mm
16:29 26.1 °C 6.2 °C 1014.8 hPa SW 7.4 km/h 7.4 km/h 28 % 0.0 mm
16:34 26.1 °C 6.2 °C 1014.8 hPa SW 9.3 km/h 9.3 km/h 28 % 0.0 mm
16:39 26.3 °C 6.3 °C 1014.8 hPa West 9.3 km/h 9.3 km/h 28 % 0.0 mm
16:44 26.4 °C 6.9 °C 1014.8 hPa SW 9.3 km/h 9.3 km/h 29 % 0.0 mm
16:49 26.4 °C 6.9 °C 1014.8 hPa NW 9.3 km/h 9.3 km/h 29 % 0.0 mm
16:54 26.1 °C 6.2 °C 1014.8 hPa WSW 13.0 km/h 13.0 km/h 28 % 0.0 mm
16:59 26.4 °C 6.9 °C 1014.8 hPa West 9.3 km/h 9.3 km/h 29 % 0.0 mm
17:04 26.7 °C 7.2 °C 1014.8 hPa WSW 7.4 km/h 7.4 km/h 29 % 0.0 mm
17:09 26.6 °C 6.6 °C 1014.8 hPa WNW 18.5 km/h 18.5 km/h 28 % 0.0 mm
17:14 26.5 °C 6.5 °C 1014.8 hPa WSW 6.9 km/h 6.9 km/h 28 % 0.0 mm
17:19 26.5 °C 6.5 °C 1014.8 hPa West 14.8 km/h 14.8 km/h 28 % 0.0 mm
17:24 26.5 °C 7.0 °C 1014.8 hPa West 11.1 km/h 11.1 km/h 29 % 0.0 mm
17:29 26.3 °C 6.3 °C 1014.8 hPa South 13.0 km/h 13.0 km/h 28 % 0.0 mm
17:34 26.4 °C 6.9 °C 1014.8 hPa WNW 9.3 km/h 9.3 km/h 29 % 0.0 mm
17:39 26.0 °C 6.6 °C 1014.8 hPa West 9.3 km/h 9.3 km/h 29 % 0.0 mm
17:40 26.0 °C 6.6 °C 1014.8 hPa SW 11.9 km/h 11.9 km/h 29 % 0.0 mm
17:45 25.8 °C 6.4 °C 1014.8 hPa WSW 13.7 km/h 13.7 km/h 29 % 0.0 mm
17:50 25.3 °C 6.4 °C 1014.8 hPa SW 9.5 km/h 9.5 km/h 30 % 0.0 mm
17:55 25.0 °C 6.2 °C 1014.8 hPa SW 9.3 km/h 9.3 km/h 30 % 0.0 mm
18:00 24.6 °C 6.3 °C 1014.8 hPa SSW 9.3 km/h 9.3 km/h 31 % 0.0 mm
18:05 24.3 °C 6.6 °C 1014.8 hPa WSW 11.1 km/h 11.1 km/h 32 % 0.0 mm
18:10 24.7 °C 6.9 °C 1014.8 hPa SW 11.1 km/h 11.1 km/h 32 % 0.0 mm
18:15 24.3 °C 7.0 °C 1014.8 hPa SSW 18.5 km/h 18.5 km/h 33 % 0.0 mm
18:20 23.9 °C 6.7 °C 1014.8 hPa SW 9.3 km/h 9.3 km/h 33 % 0.0 mm
18:25 23.8 °C 7.0 °C 1015.8 hPa SSW 10.3 km/h 10.3 km/h 34 % 0.0 mm
18:30 23.8 °C 7.0 °C 1015.8 hPa South 11.1 km/h 11.1 km/h 34 % 0.0 mm
18:35 23.8 °C 7.0 °C 1015.8 hPa West 13.7 km/h 13.7 km/h 34 % 0.0 mm
18:40 23.8 °C 7.4 °C 1014.8 hPa SW 16.7 km/h 16.7 km/h 35 % 0.0 mm
18:45 24.0 °C 8.0 °C 1014.8 hPa SSW 7.9 km/h 7.9 km/h 36 % 0.0 mm
18:50 23.9 °C 7.9 °C 1014.8 hPa SW 14.8 km/h 14.8 km/h 36 % 0.0 mm
18:55 23.7 °C 7.7 °C 1015.8 hPa SW 18.5 km/h 18.5 km/h 36 % 0.0 mm
19:00 23.5 °C 7.6 °C 1015.8 hPa SSW 20.4 km/h 20.4 km/h 36 % 0.0 mm
19:05 23.4 °C 7.5 °C 1015.8 hPa SW 11.1 km/h 11.1 km/h 36 % 0.0 mm
19:10 23.4 °C 7.5 °C 1015.8 hPa SW 13.0 km/h 13.0 km/h 36 % 0.0 mm
19:12 23.4 °C 7.5 °C 1015.8 hPa SSW 16.7 km/h 16.7 km/h 36 % 0.0 mm
19:17 23.3 °C 7.4 °C 1015.8 hPa SW 20.4 km/h 20.4 km/h 36 % 0.0 mm
19:22 23.1 °C 7.2 °C 1015.8 hPa SW 24.1 km/h 24.1 km/h 36 % 0.0 mm
19:27 23.1 °C 7.2 °C 1015.8 hPa SSW 13.0 km/h 13.0 km/h 36 % 0.0 mm
19:32 22.8 °C 7.3 °C 1015.8 hPa SSW 22.2 km/h 22.2 km/h 37 % 0.0 mm
19:37 22.7 °C 7.3 °C 1015.8 hPa SW 14.8 km/h 14.8 km/h 37 % 0.0 mm
19:42 22.5 °C 7.1 °C 1015.8 hPa SW 16.7 km/h 16.7 km/h 37 % 0.0 mm
19:47 22.3 °C 7.3 °C 1015.8 hPa SSW 11.1 km/h 11.1 km/h 38 % 0.0 mm
19:52 22.1 °C 7.1 °C 1015.8 hPa SW 24.1 km/h 24.1 km/h 38 % 0.0 mm
19:57 22.0 °C 7.4 °C 1015.8 hPa SW 14.8 km/h 14.8 km/h 39 % 0.0 mm
20:02 21.8 °C 7.2 °C 1015.8 hPa SSW 20.6 km/h 20.6 km/h 39 % 0.0 mm
20:07 21.5 °C 7.3 °C 1015.8 hPa South 16.7 km/h 16.7 km/h 40 % 0.0 mm
20:12 21.3 °C 7.2 °C 1015.8 hPa South 20.4 km/h 20.4 km/h 40 % 0.0 mm
20:17 21.1 °C 7.3 °C 1015.8 hPa SW 18.5 km/h 18.5 km/h 41 % 0.0 mm
20:22 20.9 °C 7.2 °C 1015.8 hPa SW 14.8 km/h 14.8 km/h 41 % 0.0 mm
20:27 20.8 °C 7.4 °C 1015.8 hPa SW 9.3 km/h 9.3 km/h 42 % 0.0 mm
20:32 20.5 °C 7.2 °C 1015.8 hPa SW 13.0 km/h 13.0 km/h 42 % 0.0 mm
20:37 20.4 °C 7.4 °C 1015.8 hPa South 16.7 km/h 16.7 km/h 43 % 0.0 mm
20:42 20.2 °C 7.2 °C 1016.8 hPa SW 11.9 km/h 11.9 km/h 43 % 0.0 mm
20:47 20.1 °C 7.4 °C 1016.8 hPa WSW 13.7 km/h 13.7 km/h 44 % 0.0 mm
20:52 19.9 °C 7.3 °C 1016.8 hPa SW 11.1 km/h 11.1 km/h 44 % 0.0 mm
20:57 19.8 °C 7.2 °C 1017.8 hPa SW 14.8 km/h 14.8 km/h 44 % 0.0 mm
21:02 19.7 °C 7.4 °C 1017.8 hPa SW 10.0 km/h 10.0 km/h 45 % 0.0 mm
21:07 19.5 °C 7.2 °C 1017.8 hPa SW 14.8 km/h 14.8 km/h 45 % 0.0 mm
21:12 19.4 °C 7.5 °C 1017.8 hPa SW 9.3 km/h 9.3 km/h 46 % 0.0 mm
21:17 19.2 °C 7.3 °C 1017.8 hPa SSW 11.9 km/h 11.9 km/h 46 % 0.0 mm
21:22 19.1 °C 7.5 °C 1017.8 hPa SW 11.1 km/h 11.1 km/h 47 % 0.0 mm
21:27 19.0 °C 7.4 °C 1017.8 hPa SW 7.4 km/h 7.4 km/h 47 % 0.0 mm
21:32 19.0 °C 7.4 °C 1017.8 hPa WSW 9.3 km/h 9.3 km/h 47 % 0.0 mm
21:37 18.8 °C 7.8 °C 1017.8 hPa SW 7.4 km/h 7.4 km/h 49 % 0.0 mm
21:42 18.7 °C 7.8 °C 1017.8 hPa SW 9.0 km/h 9.0 km/h 49 % 0.0 mm
21:47 18.6 °C 7.7 °C 1017.8 hPa SW 9.3 km/h 9.3 km/h 49 % 0.0 mm
21:52 18.5 °C 7.6 °C 1017.8 hPa SSW 7.4 km/h 7.4 km/h 49 % 0.0 mm
21:57 18.4 °C 7.5 °C 1017.8 hPa SW 7.4 km/h 7.4 km/h 49 % 0.0 mm
22:02 18.4 °C 7.5 °C 1017.8 hPa SW 7.4 km/h 7.4 km/h 49 % 0.0 mm
22:07 18.3 °C 7.7 °C 1017.8 hPa SW 3.9 km/h 3.9 km/h 50 % 0.0 mm
22:12 18.2 °C 7.6 °C 1017.8 hPa SW 4.2 km/h 4.2 km/h 50 % 0.0 mm
22:17 18.0 °C 7.4 °C 1017.8 hPa SW 5.6 km/h 5.6 km/h 50 % 0.0 mm
22:22 18.0 °C 7.4 °C 1017.8 hPa WSW 3.9 km/h 3.9 km/h 50 % 0.0 mm
22:27 17.9 °C 7.3 °C 1017.8 hPa SW 5.6 km/h 5.6 km/h 50 % 0.0 mm
22:32 17.8 °C 7.2 °C 1017.8 hPa WSW 5.8 km/h 5.8 km/h 50 % 0.0 mm
22:37 17.8 °C 7.2 °C 1017.8 hPa WSW 5.6 km/h 5.6 km/h 50 % 0.0 mm
22:42 17.6 °C 7.3 °C 1017.8 hPa WSW 6.4 km/h 6.4 km/h 51 % 0.0 mm
22:47 17.5 °C 7.2 °C 1017.8 hPa SSW 5.6 km/h 5.6 km/h 51 % 0.0 mm
22:52 17.5 °C 7.2 °C 1017.8 hPa South 5.6 km/h 5.6 km/h 51 % 0.0 mm
22:57 17.3 °C 7.1 °C 1018.8 hPa SW 6.4 km/h 6.4 km/h 51 % 0.0 mm
23:02 17.3 °C 7.3 °C 1018.8 hPa SW 5.6 km/h 5.6 km/h 52 % 0.0 mm
23:07 17.4 °C 7.4 °C 1018.8 hPa SW 5.3 km/h 5.3 km/h 52 % 0.0 mm
23:12 17.4 °C 7.4 °C 1018.8 hPa SSW 5.6 km/h 5.6 km/h 52 % 0.0 mm
23:17 17.3 °C 7.3 °C 1018.8 hPa SW 5.6 km/h 5.6 km/h 52 % 0.0 mm
23:22 17.3 °C 7.3 °C 1018.8 hPa SW 6.4 km/h 6.4 km/h 52 % 0.0 mm
23:27 17.3 °C 7.6 °C 1018.8 hPa SW 5.6 km/h 5.6 km/h 53 % 0.0 mm
23:32 17.1 °C 7.4 °C 1018.8 hPa WSW 5.6 km/h 5.6 km/h 53 % 0.0 mm
23:37 17.2 °C 7.6 °C 1018.8 hPa SW 7.4 km/h 7.4 km/h 53 % 0.0 mm
23:42 17.2 °C 7.6 °C 1018.8 hPa WSW 5.6 km/h 5.6 km/h 53 % 0.0 mm
23:47 17.2 °C 7.6 °C 1018.8 hPa WSW 4.7 km/h 4.7 km/h 53 % 0.0 mm
23:52 17.2 °C 7.6 °C 1018.8 hPa West 3.7 km/h 3.7 km/h 53 % 0.0 mm
23:57 17.2 °C 7.6 °C 1018.8 hPa WSW 4.2 km/h 4.2 km/h 53 % 0.0 mm
Meteo Sesrovires
Elogis d' Weather Underground - 3.5 mb

Guio original per  Jim McMurry - jmcmurry@mwt.net Adaptat per a la plantilla per  Wim van der Kuil - Leuven-Template.eu

Trobareu la nostra informacio del temps tambe a:

Weather Underground

AWEKAS